Time;durP1;ratioP1;P1;durP2;ratioP2;P2;SDS_P1;SDS_P2;PMS_P1;PMS_P2;Temp;Humidity;BMP_temperature;BMP_pressure;BME280_temperature;BME280_humidity;BME280_pressure;Samples;Min_cycle;Max_cycle;Signal;HPM_P1;HPM_P2
2022/04/20 00:02:23;;;;;;;2.20;2.00;;;8.80;59.10;;;;;;6003730;23;20196;-77
2022/04/20 00:04:50;;;;;;;2.72;2.47;;;8.80;59.40;;;;;;6002565;23;20211;-78
2022/04/20 00:07:17;;;;;;;2.45;2.25;;;8.70;59.60;;;;;;6001921;23;20246;-78
2022/04/20 00:09:44;;;;;;;2.55;2.35;;;8.70;60.20;;;;;;6002450;23;20305;-78
2022/04/20 00:12:12;;;;;;;3.20;2.38;;;8.60;60.80;;;;;;6004583;23;20222;-77
2022/04/20 00:14:39;;;;;;;2.67;2.35;;;8.50;61.20;;;;;;6002760;23;20276;-78
2022/04/20 00:17:07;;;;;;;2.85;2.17;;;8.40;61.90;;;;;;5998335;23;20222;-78
2022/04/20 00:19:34;;;;;;;2.72;2.53;;;8.40;62.10;;;;;;6002788;23;20277;-77
2022/04/20 00:22:00;;;;;;;2.90;2.60;;;8.40;62.50;;;;;;6003830;23;20221;-77
2022/04/20 00:24:28;;;;;;;4.80;3.00;;;8.40;63.30;;;;;;6003346;23;20218;-78
2022/04/20 00:26:54;;;;;;;2.65;2.45;;;8.30;63.60;;;;;;6003990;23;20249;-78
2022/04/20 00:29:23;;;;;;;3.40;2.80;;;8.30;64.10;;;;;;6004276;23;20218;-78
2022/04/20 00:31:50;;;;;;;3.10;2.60;;;8.30;64.60;;;;;;6003559;23;20244;-78
2022/04/20 00:34:16;;;;;;;3.00;2.80;;;8.30;65.40;;;;;;6003555;23;20241;-78
2022/04/20 00:36:44;;;;;;;3.25;2.95;;;8.30;66.00;;;;;;6003833;23;20226;-78
2022/04/20 00:39:11;;;;;;;3.85;3.25;;;8.20;66.10;;;;;;5997123;23;20246;-88
2022/04/20 00:41:37;;;;;;;3.08;2.78;;;8.20;66.70;;;;;;5975345;23;20218;-86
2022/04/20 00:44:06;;;;;;;3.60;3.05;;;8.20;67.10;;;;;;5974922;24;20192;-87
2022/04/20 00:46:35;;;;;;;3.45;2.67;;;8.20;67.60;;;;;;5946173;24;20199;-87
2022/04/20 00:49:03;;;;;;;3.00;2.70;;;8.10;68.10;;;;;;5953057;24;20199;-87
2022/04/20 00:51:30;;;;;;;3.65;2.88;;;8.10;68.60;;;;;;5940250;24;20192;-86
2022/04/20 00:53:59;;;;;;;3.00;2.70;;;8.00;69.20;;;;;;5961237;24;20246;-87
2022/04/20 00:56:27;;;;;;;3.33;2.90;;;8.00;69.70;;;;;;5937448;24;20306;-87
2022/04/20 00:58:54;;;;;;;3.85;2.90;;;7.90;70.30;;;;;;5957841;24;20261;-87
2022/04/20 01:01:21;;;;;;;3.70;3.05;;;7.90;70.60;;;;;;5940272;24;20219;-87
2022/04/20 01:03:50;;;;;;;3.50;3.20;;;7.90;71.10;;;;;;5948716;24;20594;-87
2022/04/20 01:06:16;;;;;;;4.88;3.30;;;7.90;71.80;;;;;;5959651;24;20238;-87
2022/04/20 01:08:45;;;;;;;3.40;3.20;;;7.80;72.20;;;;;;5964355;24;20223;-87
2022/04/20 01:11:12;;;;;;;5.00;3.50;;;7.80;72.70;;;;;;5949527;24;20207;-86
2022/04/20 01:13:39;;;;;;;2.83;2.60;;;7.70;73.10;;;;;;5949634;24;20270;-87
2022/04/20 01:16:06;;;;;;;4.25;3.47;;;7.70;73.60;;;;;;5949731;24;20334;-87
2022/04/20 01:18:33;;;;;;;3.67;3.38;;;7.70;74.20;;;;;;5947938;24;20253;-86
2022/04/20 01:21:02;;;;;;;3.30;3.00;;;7.70;74.90;;;;;;5946364;24;20542;-86
2022/04/20 01:23:30;;;;;;;4.10;3.28;;;7.70;75.60;;;;;;5949778;24;20394;-86
2022/04/20 01:25:57;;;;;;;3.60;3.30;;;7.70;76.40;;;;;;5962150;24;20703;-86
2022/04/20 01:28:24;;;;;;;3.20;3.00;;;7.70;77.00;;;;;;5957343;24;20197;-86
2022/04/20 01:30:51;;;;;;;4.20;3.20;;;7.70;77.70;;;;;;5952722;24;20195;-86
2022/04/20 01:33:18;;;;;;;3.78;3.03;;;7.70;78.20;;;;;;5948123;24;20282;-87
2022/04/20 01:35:44;;;;;;;3.50;3.20;;;7.60;78.90;;;;;;5950639;24;20570;-86
2022/04/20 01:38:13;;;;;;;4.10;3.70;;;7.60;79.60;;;;;;5955846;24;20617;-85
2022/04/20 01:40:40;;;;;;;3.80;3.40;;;7.60;80.20;;;;;;5957816;24;20283;-86
2022/04/20 01:43:07;;;;;;;3.38;3.13;;;7.60;80.60;;;;;;5951542;24;20203;-86
2022/04/20 01:45:34;;;;;;;6.00;3.50;;;7.50;81.20;;;;;;5950104;24;20691;-86
2022/04/20 01:48:00;;;;;;;3.45;3.13;;;7.40;81.90;;;;;;5948936;24;20206;-87
2022/04/20 01:50:27;;;;;;;3.85;3.45;;;7.50;82.70;;;;;;5950763;24;20262;-86
2022/04/20 01:52:54;;;;;;;5.07;3.67;;;7.40;83.20;;;;;;5949799;24;20198;-86
2022/04/20 01:55:23;;;;;;;4.15;3.40;;;7.40;83.70;;;;;;5952629;24;20216;-86
2022/04/20 01:57:52;;;;;;;3.60;3.30;;;7.40;84.30;;;;;;5966925;24;20281;-86
2022/04/20 02:00:19;;;;;;;3.90;3.60;;;7.40;85.10;;;;;;5945718;24;20243;-86
2022/04/20 02:02:45;;;;;;;4.25;3.83;;;7.40;85.60;;;;;;5953324;24;20899;-84
2022/04/20 02:05:14;;;;;;;3.60;3.40;;;7.40;86.00;;;;;;5960499;24;20295;-85
2022/04/20 02:07:42;;;;;;;3.88;3.58;;;7.40;86.50;;;;;;5969162;24;20312;-85
2022/04/20 02:10:09;;;;;;;4.30;3.60;;;7.30;87.10;;;;;;5948160;24;20200;-85
2022/04/20 02:12:38;;;;;;;3.78;3.47;;;7.30;88.20;;;;;;5948285;24;20199;-85
2022/04/20 02:15:06;;;;;;;4.20;3.80;;;7.20;89.20;;;;;;5948594;24;20211;-85
2022/04/20 02:17:36;;;;;;;4.45;3.75;;;7.20;89.90;;;;;;5953516;24;20215;-85
2022/04/20 02:20:03;;;;;;;4.45;4.07;;;7.10;90.20;;;;;;5942115;24;20243;-85
2022/04/20 02:22:30;;;;;;;4.28;3.88;;;7.10;90.50;;;;;;5949751;24;20188;-85
2022/04/20 02:24:59;;;;;;;4.10;3.80;;;7.10;90.80;;;;;;5949012;24;20314;-85
2022/04/20 02:27:26;;;;;;;5.60;3.55;;;7.10;91.00;;;;;;5950671;24;20808;-85
2022/04/20 02:29:55;;;;;;;4.00;3.70;;;7.10;91.40;;;;;;5948447;24;20250;-85
2022/04/20 02:32:22;;;;;;;4.35;3.95;;;7.00;91.80;;;;;;5950644;24;20211;-86
2022/04/20 02:34:50;;;;;;;4.45;4.07;;;6.90;92.10;;;;;;5950418;24;20298;-84
2022/04/20 02:37:17;;;;;;;3.90;3.60;;;6.90;92.50;;;;;;5948842;24;20270;-85
2022/04/20 02:39:46;;;;;;;3.75;3.45;;;6.90;92.90;;;;;;5959474;24;20274;-85
2022/04/20 02:42:13;;;;;;;4.20;3.90;;;6.90;93.10;;;;;;5948790;24;20279;-85
2022/04/20 02:44:41;;;;;;;3.92;3.47;;;6.90;93.50;;;;;;5949653;24;20295;-85
2022/04/20 02:47:09;;;;;;;4.53;4.22;;;6.90;93.80;;;;;;5950406;24;20202;-85
2022/04/20 02:49:36;;;;;;;4.10;3.80;;;6.80;94.00;;;;;;5947341;24;21704;-85
2022/04/20 02:52:03;;;;;;;5.53;3.50;;;6.80;94.30;;;;;;5943889;24;20194;-85
2022/04/20 02:54:30;;;;;;;4.30;3.90;;;6.80;94.80;;;;;;5962019;24;20220;-85
2022/04/20 02:56:57;;;;;;;4.38;3.80;;;6.80;95.00;;;;;;5945875;24;20203;-84
2022/04/20 02:59:24;;;;;;;3.95;3.65;;;6.80;95.20;;;;;;5951835;24;20223;-86
2022/04/20 03:01:51;;;;;;;6.22;3.85;;;6.70;95.50;;;;;;5954517;24;20188;-85
2022/04/20 03:04:19;;;;;;;4.82;4.20;;;6.70;95.70;;;;;;5952388;24;20251;-85
2022/04/20 03:06:46;;;;;;;4.15;3.80;;;6.70;95.90;;;;;;5951560;24;20198;-85
2022/04/20 03:09:13;;;;;;;3.55;3.25;;;6.70;96.30;;;;;;5948712;24;20192;-86
2022/04/20 03:11:40;;;;;;;4.40;4.00;;;6.70;96.40;;;;;;5946241;24;20282;-85
2022/04/20 03:14:07;;;;;;;4.40;3.70;;;6.60;96.60;;;;;;5948722;24;20548;-84
2022/04/20 03:16:34;;;;;;;4.43;3.47;;;6.60;96.90;;;;;;5945881;24;20198;-85
2022/04/20 03:19:01;;;;;;;4.68;4.30;;;6.60;97.10;;;;;;5951331;24;20256;-85
2022/04/20 03:21:30;;;;;;;4.20;3.90;;;6.60;97.20;;;;;;5944543;24;20195;-85
2022/04/20 03:23:57;;;;;;;4.20;3.90;;;6.60;97.40;;;;;;5949322;24;20226;-85
2022/04/20 03:26:24;;;;;;;3.90;3.60;;;6.60;97.70;;;;;;5948901;24;20225;-85
2022/04/20 03:28:51;;;;;;;4.13;3.83;;;6.60;97.60;;;;;;5978065;24;20225;-85
2022/04/20 03:31:18;;;;;;;5.07;4.15;;;6.60;97.60;;;;;;5954091;24;20196;-85
2022/04/20 03:33:46;;;;;;;4.22;3.92;;;6.50;98.00;;;;;;5964786;24;20282;-85
2022/04/20 03:36:13;;;;;;;4.00;3.60;;;6.50;98.10;;;;;;5954687;24;20198;-85
2022/04/20 03:38:41;;;;;;;4.15;3.85;;;6.50;98.30;;;;;;5961895;24;20302;-85
2022/04/20 03:41:09;;;;;;;4.38;3.97;;;6.60;98.10;;;;;;5955029;24;20202;-85
2022/04/20 03:43:36;;;;;;;4.30;3.90;;;6.60;98.50;;;;;;5954047;23;20250;-85
2022/04/20 03:46:05;;;;;;;4.80;4.00;;;6.60;98.60;;;;;;5948481;24;20246;-85
2022/04/20 03:48:32;;;;;;;4.72;4.30;;;6.60;98.70;;;;;;5937945;24;20192;-85
2022/04/20 03:50:59;;;;;;;4.55;4.15;;;6.60;98.70;;;;;;5958910;24;20245;-85
2022/04/20 03:53:26;;;;;;;4.15;3.85;;;6.60;98.90;;;;;;5963199;24;20229;-85
2022/04/20 03:55:54;;;;;;;4.93;4.38;;;6.50;99.10;;;;;;5960468;24;20212;-86
2022/04/20 03:58:21;;;;;;;4.72;4.32;;;6.60;99.50;;;;;;5948339;24;20242;-86
2022/04/20 04:00:48;;;;;;;5.22;4.57;;;6.50;99.60;;;;;;5947825;24;20686;-87
2022/04/20 04:03:15;;;;;;;4.80;4.30;;;6.50;99.80;;;;;;5946640;24;20199;-86
2022/04/20 04:05:43;;;;;;;4.82;4.32;;;6.50;99.90;;;;;;5955787;24;20211;-86
2022/04/20 04:08:10;;;;;;;4.28;3.88;;;6.40;99.90;;;;;;5973146;24;20195;-86
2022/04/20 04:10:37;;;;;;;5.75;3.70;;;6.40;99.90;;;;;;5959522;24;20238;-86
2022/04/20 04:13:06;;;;;;;4.57;4.28;;;6.40;99.90;;;;;;5946644;24;20628;-85
2022/04/20 04:15:33;;;;;;;4.20;3.80;;;6.40;99.90;;;;;;5969370;24;20283;-85
2022/04/20 04:18:01;;;;;;;4.43;4.03;;;6.30;99.90;;;;;;5970318;24;20708;-86
2022/04/20 04:20:29;;;;;;;4.15;3.85;;;6.30;99.90;;;;;;5968392;24;20199;-86
2022/04/20 04:22:56;;;;;;;4.63;4.10;;;6.30;99.90;;;;;;5956580;24;20287;-86
2022/04/20 04:25:23;;;;;;;4.95;4.45;;;6.30;99.90;;;;;;5967753;24;20222;-86
2022/04/20 04:27:50;;;;;;;4.90;4.15;;;6.20;99.90;;;;;;5950379;24;20233;-86
2022/04/20 04:30:18;;;;;;;4.63;4.22;;;6.20;99.90;;;;;;5945792;24;20314;-86
2022/04/20 04:32:45;;;;;;;4.43;4.03;;;6.20;99.90;;;;;;5947690;24;20203;-86
2022/04/20 04:35:12;;;;;;;4.45;4.15;;;6.10;99.90;;;;;;5947973;24;20219;-86
2022/04/20 04:37:39;;;;;;;4.40;4.00;;;6.10;99.90;;;;;;5950819;24;20276;-86
2022/04/20 04:40:07;;;;;;;4.07;3.78;;;6.10;99.90;;;;;;5974610;24;20270;-87
2022/04/20 04:42:34;;;;;;;4.95;4.55;;;6.00;99.90;;;;;;5943646;24;20525;-86
2022/04/20 04:50:28;;;;;;;4.93;4.35;;;6.10;99.90;;;;;;5945647;24;20198;-86
2022/04/20 04:52:55;;;;;;;5.10;4.60;;;6.10;99.90;;;;;;5963152;24;20192;-86
2022/04/20 04:55:22;;;;;;;5.90;4.90;;;6.00;99.90;;;;;;5945556;24;20222;-86
2022/04/20 04:57:49;;;;;;;5.28;4.80;;;6.00;99.90;;;;;;5958233;24;20230;-85
2022/04/20 05:00:17;;;;;;;5.50;5.00;;;6.00;99.90;;;;;;5949347;24;20226;-86
2022/04/20 05:02:45;;;;;;;5.07;4.68;;;5.90;99.90;;;;;;5950257;24;20199;-86
2022/04/20 05:05:12;;;;;;;5.05;4.65;;;5.90;99.90;;;;;;5942182;24;20215;-81
2022/04/20 05:07:39;;;;;;;5.80;5.30;;;5.90;99.90;;;;;;5940910;24;20294;-84
2022/04/20 05:10:07;;;;;;;4.88;4.47;;;5.90;99.90;;;;;;5956043;24;20297;-82
2022/04/20 05:12:35;;;;;;;5.32;4.82;;;5.90;99.90;;;;;;5930201;24;20214;-85
2022/04/20 05:15:02;;;;;;;5.15;4.75;;;5.90;99.90;;;;;;5948907;24;20243;-87
2022/04/20 05:17:29;;;;;;;5.55;5.05;;;5.90;99.90;;;;;;5946494;24;20199;-80
2022/04/20 05:19:57;;;;;;;6.53;4.95;;;6.00;99.90;;;;;;5959388;24;20227;-83
2022/04/20 05:22:25;;;;;;;5.70;5.20;;;5.90;99.90;;;;;;5956766;24;20222;-85
2022/04/20 05:24:51;;;;;;;5.30;4.90;;;5.90;99.90;;;;;;5944240;24;20239;-85
2022/04/20 05:27:18;;;;;;;6.18;5.57;;;5.90;99.90;;;;;;5944142;24;20195;-86
2022/04/20 05:29:45;;;;;;;5.15;4.75;;;5.90;99.90;;;;;;5952593;24;20191;-85
2022/04/20 05:32:12;;;;;;;5.45;5.05;;;6.00;99.90;;;;;;5959348;24;20195;-85
2022/04/20 05:34:39;;;;;;;5.63;5.10;;;6.00;99.90;;;;;;5946953;24;20219;-84
2022/04/20 05:42:37;;;;;;;5.25;4.85;;;6.00;99.90;;;;;;5949028;24;20191;-83
2022/04/20 05:45:05;;;;;;;5.38;4.78;;;6.10;99.90;;;;;;5946880;24;20208;-83
2022/04/20 05:47:35;;;;;;;5.57;5.00;;;6.20;99.90;;;;;;5950885;24;20195;-84
2022/04/20 05:50:03;;;;;;;6.10;5.50;;;6.30;99.90;;;;;;5944619;24;20302;-85
2022/04/20 05:52:31;;;;;;;5.88;5.38;;;6.30;99.90;;;;;;5952583;24;20194;-85
2022/04/20 05:54:58;;;;;;;5.57;5.07;;;6.30;99.90;;;;;;5942887;24;20227;-91
2022/04/20 05:57:25;;;;;;;5.65;5.15;;;6.40;99.90;;;;;;5936649;24;20190;-90
2022/04/20 05:59:52;;;;;;;6.28;5.78;;;6.50;99.90;;;;;;5949645;24;20254;-90
2022/04/20 06:02:19;;;;;;;6.97;6.03;;;6.50;99.90;;;;;;5942632;24;20222;-85
2022/04/20 06:04:46;;;;;;;6.13;5.47;;;6.40;99.90;;;;;;5958020;24;20206;-86
2022/04/20 06:07:13;;;;;;;5.40;4.90;;;6.40;99.90;;;;;;5932774;24;20195;-81
2022/04/20 06:09:42;;;;;;;5.97;5.47;;;6.40;99.90;;;;;;5937592;24;20192;-85
2022/04/20 06:12:09;;;;;;;5.80;5.20;;;6.40;99.90;;;;;;5943585;24;20636;-85
2022/04/20 06:14:36;;;;;;;5.40;4.90;;;6.50;99.90;;;;;;5947482;24;20979;-86
2022/04/20 06:17:03;;;;;;;6.10;5.60;;;6.60;99.90;;;;;;5944227;24;20270;-86
2022/04/20 06:19:30;;;;;;;7.55;5.30;;;6.60;99.90;;;;;;5952322;24;20203;-85
2022/04/20 06:21:57;;;;;;;6.50;5.90;;;6.70;99.90;;;;;;5937763;24;20196;-86
2022/04/20 06:24:24;;;;;;;5.60;5.15;;;6.70;99.90;;;;;;5954752;24;20227;-85
2022/04/20 06:26:52;;;;;;;7.68;5.70;;;6.80;99.90;;;;;;5954039;24;20707;-85
2022/04/20 06:29:19;;;;;;;5.65;5.15;;;6.90;99.90;;;;;;5941292;24;20200;-85
2022/04/20 06:31:47;;;;;;;6.13;5.68;;;7.00;99.90;;;;;;5947751;24;20251;-85
2022/04/20 06:34:13;;;;;;;5.97;5.38;;;7.10;99.90;;;;;;5932551;24;20210;-85
2022/04/20 06:36:40;;;;;;;5.60;5.18;;;7.20;99.90;;;;;;5948987;24;20643;-85
2022/04/20 06:39:07;;;;;;;4.78;4.30;;;7.30;99.90;;;;;;5943961;24;20330;-85
2022/04/20 06:41:34;;;;;;;5.38;4.85;;;7.40;99.90;;;;;;5934475;24;20192;-85
2022/04/20 06:44:03;;;;;;;5.07;4.57;;;7.50;99.90;;;;;;5938206;24;20208;-85
2022/04/20 06:46:30;;;;;;;4.60;4.30;;;7.60;99.90;;;;;;5948169;24;20269;-85
2022/04/20 06:48:57;;;;;;;6.60;4.65;;;7.90;99.90;;;;;;5936401;24;20884;-82
2022/04/20 06:51:24;;;;;;;4.15;3.83;;;8.20;99.90;;;;;;5946512;24;20188;-81
2022/04/20 06:59:23;;;;;;;4.43;4.03;;;9.70;96.20;;;;;;5998601;23;21411;-72
2022/04/20 07:01:51;;;;;;;4.32;3.92;;;10.20;94.60;;;;;;5999033;23;20194;-71
2022/04/20 07:04:18;;;;;;;5.35;4.40;;;10.60;92.80;;;;;;5984621;23;20207;-70
2022/04/20 07:06:45;;;;;;;4.15;3.80;;;10.80;92.20;;;;;;5967524;23;20188;-71
2022/04/20 07:09:12;;;;;;;4.28;3.88;;;11.20;91.00;;;;;;5970898;23;20601;-71
2022/04/20 07:11:39;;;;;;;4.60;4.30;;;11.30;90.10;;;;;;5973999;23;20578;-71
2022/04/20 07:14:06;;;;;;;3.80;3.50;;;11.50;87.60;;;;;;5968666;23;20212;-71
2022/04/20 07:16:34;;;;;;;4.53;3.80;;;11.60;86.30;;;;;;5974249;23;20232;-71
2022/04/20 07:19:02;;;;;;;4.45;4.15;;;11.60;85.00;;;;;;5969852;23;20224;-72
2022/04/20 07:21:29;;;;;;;3.90;3.60;;;11.40;83.90;;;;;;5975143;24;20654;-71
2022/04/20 07:23:56;;;;;;;5.25;3.60;;;11.20;83.90;;;;;;5967830;23;20255;-71
2022/04/20 07:26:23;;;;;;;4.25;3.88;;;11.20;83.60;;;;;;5973923;23;20198;-71
2022/04/20 07:28:50;;;;;;;4.38;4.07;;;11.30;83.50;;;;;;5967082;23;20189;-71
2022/04/20 07:31:16;;;;;;;4.43;4.03;;;11.40;82.50;;;;;;5972804;23;20193;-72
2022/04/20 07:33:45;;;;;;;3.90;3.60;;;11.70;82.70;;;;;;5973251;23;20227;-72
2022/04/20 07:36:12;;;;;;;3.70;3.40;;;11.90;81.40;;;;;;5967423;23;20189;-70
2022/04/20 07:38:39;;;;;;;4.53;4.13;;;12.30;81.10;;;;;;5968247;24;20187;-71
2022/04/20 07:41:06;;;;;;;4.13;3.75;;;12.70;79.60;;;;;;5962835;24;20756;-72
2022/04/20 07:43:33;;;;;;;4.00;3.70;;;12.90;78.00;;;;;;5968000;23;20294;-71
2022/04/20 07:46:00;;;;;;;3.85;3.55;;;13.00;77.60;;;;;;5975674;24;20201;-71
2022/04/20 07:48:27;;;;;;;4.70;4.30;;;13.30;77.10;;;;;;5964471;24;20265;-71
2022/04/20 07:50:55;;;;;;;5.10;4.28;;;13.40;75.30;;;;;;5973466;23;20606;-71
2022/04/20 07:53:23;;;;;;;4.47;4.07;;;13.70;75.50;;;;;;5973560;23;20203;-71
2022/04/20 07:55:50;;;;;;;4.53;4.13;;;13.80;74.10;;;;;;5959905;23;20203;-71
2022/04/20 07:58:17;;;;;;;3.90;3.60;;;14.30;74.60;;;;;;5969931;23;20188;-71
2022/04/20 08:00:45;;;;;;;4.23;3.93;;;15.20;71.20;;;;;;5969066;23;20542;-71
2022/04/20 08:03:14;;;;;;;4.37;3.97;;;15.20;67.00;;;;;;5959930;23;20535;-72
2022/04/20 08:05:41;;;;;;;4.72;3.42;;;15.00;66.90;;;;;;5961313;23;20451;-71
2022/04/20 08:08:11;;;;;;;3.92;3.63;;;14.90;66.70;;;;;;5968458;23;20269;-72
2022/04/20 08:10:38;;;;;;;3.47;3.20;;;14.80;65.70;;;;;;5971764;24;20194;-72
2022/04/20 08:15:47;;;;;;;4.18;3.88;;;14.80;64.50;;;;;;5968874;23;20193;-72
2022/04/20 08:18:14;;;;;;;4.20;3.80;;;14.90;65.30;;;;;;5973939;23;20206;-74
2022/04/20 08:20:41;;;;;;;4.20;3.90;;;15.20;65.20;;;;;;5969321;23;20499;-72
2022/04/20 08:23:09;;;;;;;4.87;4.30;;;15.40;64.40;;;;;;5967851;23;20539;-72
2022/04/20 08:25:36;;;;;;;3.53;3.20;;;15.70;64.00;;;;;;5968182;23;20534;-72
2022/04/20 08:28:04;;;;;;;3.70;3.40;;;15.80;62.30;;;;;;5970505;24;20515;-72
2022/04/20 08:30:31;;;;;;;3.50;3.20;;;16.10;61.30;;;;;;5963031;23;20474;-73
2022/04/20 08:32:58;;;;;;;3.77;3.47;;;16.60;60.10;;;;;;5971041;23;20533;-72
2022/04/20 08:35:25;;;;;;;3.77;3.57;;;16.80;60.00;;;;;;5968644;24;20477;-72
2022/04/20 08:37:52;;;;;;;4.10;3.80;;;16.90;59.20;;;;;;5969228;23;20487;-72
2022/04/20 08:40:20;;;;;;;4.43;3.63;;;16.60;59.40;;;;;;5969126;24;20465;-72
2022/04/20 08:42:49;;;;;;;4.30;3.90;;;16.60;59.10;;;;;;5972650;24;20460;-72
2022/04/20 08:45:18;;;;;;;3.93;3.63;;;16.40;59.60;;;;;;5971392;24;20818;-72
2022/04/20 08:47:45;;;;;;;3.20;2.90;;;16.80;60.10;;;;;;5972870;24;20496;-73
2022/04/20 08:50:12;;;;;;;3.73;3.43;;;17.90;58.10;;;;;;5968288;24;20434;-73
2022/04/20 08:52:39;;;;;;;3.17;2.97;;;18.80;56.00;;;;;;5972268;23;21820;-73
2022/04/20 08:55:08;;;;;;;3.30;3.00;;;19.50;53.80;;;;;;5969326;23;20493;-73
2022/04/20 08:57:38;;;;;;;2.90;2.70;;;19.90;52.20;;;;;;5966012;24;20450;-73
2022/04/20 09:00:09;;;;;;;5.00;4.60;;;20.00;51.40;;;;;;5966837;23;20961;-72
2022/04/20 09:02:37;;;;;;;7.83;7.13;;;20.10;50.20;;;;;;5967777;23;21213;-73
2022/04/20 09:05:05;;;;;;;3.63;3.33;;;20.70;49.80;;;;;;5968528;24;20441;-73
2022/04/20 09:07:33;;;;;;;3.00;2.70;;;20.00;49.60;;;;;;5968738;23;20474;-73
2022/04/20 09:10:01;;;;;;;2.90;2.70;;;20.20;48.40;;;;;;5962811;24;20450;-73
2022/04/20 09:12:29;;;;;;;4.93;2.80;;;20.10;47.90;;;;;;5968743;23;20449;-73
2022/04/20 09:15:00;;;;;;;3.03;2.73;;;20.10;48.40;;;;;;5970393;23;20468;-73
2022/04/20 09:17:27;;;;;;;3.00;2.70;;;20.40;47.90;;;;;;5963420;24;20850;-73
2022/04/20 09:19:56;;;;;;;3.30;3.00;;;20.70;46.10;;;;;;5966200;24;20448;-72
2022/04/20 09:22:25;;;;;;;3.23;2.83;;;19.80;46.00;;;;;;5972106;23;20517;-73
2022/04/20 09:25:00;;;;;;;3.60;3.37;;;18.90;46.50;;;;;;5970646;24;20446;-73
2022/04/20 09:27:27;;;;;;;3.13;2.93;;;18.20;48.30;;;;;;5968663;23;20472;-72
2022/04/20 09:29:55;;;;;;;3.13;2.73;;;18.60;48.40;;;;;;5970628;24;20472;-73
2022/04/20 09:32:38;;;;;;;3.00;2.70;;;19.30;46.60;;;;;;5968348;23;20517;-73
2022/04/20 09:35:08;;;;;;;2.83;2.63;;;19.50;46.90;;;;;;5970326;24;20477;-74
2022/04/20 09:37:36;;;;;;;4.33;3.17;;;19.70;47.00;;;;;;5966444;24;20497;-73
2022/04/20 09:40:05;;;;;;;3.60;3.30;;;19.70;46.10;;;;;;5971238;24;20461;-73
2022/04/20 09:42:34;;;;;;;3.73;3.30;;;19.70;45.90;;;;;;5970030;24;20459;-73
2022/04/20 09:45:03;;;;;;;3.27;3.07;;;19.80;46.70;;;;;;5972095;24;20438;-73
2022/04/20 09:50:23;;;;;;;4.80;3.33;;;20.80;45.20;;;;;;5966884;23;20452;-73
2022/04/20 09:52:52;;;;;;;2.70;2.40;;;21.10;44.70;;;;;;5960512;23;20820;-74
2022/04/20 09:55:29;;;;;;;2.60;2.40;;;21.50;44.50;;;;;;5972507;24;20450;-74
2022/04/20 09:58:13;;;;;;;2.50;2.30;;;22.10;42.90;;;;;;5960910;23;20434;-73
2022/04/20 10:00:41;;;;;;;2.70;2.50;;;21.60;43.60;;;;;;5968015;24;20470;-73
2022/04/20 10:03:08;;;;;;;3.87;2.83;;;21.30;43.40;;;;;;5968800;23;20816;-73
2022/04/20 10:05:37;;;;;;;2.50;2.30;;;21.30;43.70;;;;;;5971024;24;20929;-74
2022/04/20 10:08:05;;;;;;;3.70;3.30;;;21.60;44.10;;;;;;5957919;23;20509;-74
2022/04/20 10:10:34;;;;;;;2.80;2.63;;;22.00;42.40;;;;;;5970008;24;21051;-73
2022/04/20 10:13:02;;;;;;;2.80;2.57;;;22.20;41.80;;;;;;5960912;24;20473;-74
2022/04/20 10:18:17;;;;;;;2.90;2.70;;;22.20;40.50;;;;;;5973595;24;20438;-73
2022/04/20 10:20:49;;;;;;;3.60;2.60;;;22.20;40.50;;;;;;5966242;23;20468;-74
2022/04/20 10:23:19;;;;;;;2.60;2.40;;;22.50;40.40;;;;;;5963993;23;20974;-73
2022/04/20 10:25:48;;;;;;;2.53;2.33;;;22.60;39.50;;;;;;5968708;23;20524;-73
2022/04/20 10:28:23;;;;;;;2.70;2.50;;;22.50;39.20;;;;;;5967697;23;20446;-73
2022/04/20 10:31:07;;;;;;;2.87;2.50;;;22.70;39.90;;;;;;5969133;23;20462;-72
2022/04/20 10:33:36;;;;;;;3.00;2.80;;;22.50;39.60;;;;;;5966001;23;20518;-73
2022/04/20 10:36:09;;;;;;;2.93;2.73;;;22.60;39.60;;;;;;5973433;24;20509;-73
2022/04/20 10:38:36;;;;;;;3.10;2.83;;;21.80;38.40;;;;;;5973647;24;20810;-73
2022/04/20 10:41:08;;;;;;;2.60;2.40;;;21.50;39.00;;;;;;5975008;24;20576;-74
2022/04/20 10:43:38;;;;;;;2.83;2.63;;;21.10;39.00;;;;;;5973800;23;20477;-73
2022/04/20 10:46:08;;;;;;;3.10;2.90;;;21.30;39.90;;;;;;5973465;24;20530;-73
2022/04/20 10:48:53;;;;;;;4.30;3.90;;;21.20;39.60;;;;;;5965746;23;21507;-72
2022/04/20 10:51:23;;;;;;;8.70;7.97;;;21.80;40.70;;;;;;5958709;23;20519;-73
2022/04/20 10:53:52;;;;;;;3.43;3.23;;;21.60;39.80;;;;;;5956198;23;20472;-72
2022/04/20 10:56:20;;;;;;;3.47;3.17;;;21.50;39.60;;;;;;5958033;23;20560;-73
2022/04/20 10:59:10;;;;;;;2.50;2.30;;;21.50;40.10;;;;;;5963491;23;20536;-74
2022/04/20 11:02:12;;;;;;;2.80;2.60;;;21.40;39.10;;;;;;5966598;24;20854;-73
2022/04/20 11:04:41;;;;;;;2.87;2.50;;;21.50;38.90;;;;;;5964873;24;20987;-73
2022/04/20 11:07:26;;;;;;;2.73;2.53;;;20.70;40.40;;;;;;5961580;24;20513;-74
2022/04/20 11:10:05;;;;;;;3.20;2.90;;;20.90;40.70;;;;;;5965830;23;20867;-74
2022/04/20 11:18:39;;;;;;;3.00;2.60;;;22.20;39.00;;;;;;5959188;24;20459;-73
2022/04/20 11:21:16;;;;;;;3.10;2.80;;;21.70;37.40;;;;;;5970271;24;20973;-73
2022/04/20 11:23:58;;;;;;;3.77;2.67;;;20.60;38.70;;;;;;5975608;23;20972;-73
2022/04/20 11:26:28;;;;;;;3.07;2.80;;;20.20;40.10;;;;;;5973382;23;20464;-73
2022/04/20 11:28:56;;;;;;;2.37;2.27;;;20.10;38.70;;;;;;5974644;24;20479;-74
2022/04/20 11:31:24;;;;;;;2.83;2.63;;;20.20;40.00;;;;;;5974541;24;20530;-74
2022/04/20 11:33:53;;;;;;;2.83;2.63;;;21.00;40.20;;;;;;5975203;23;20544;-74
2022/04/20 11:36:20;;;;;;;2.83;2.63;;;21.80;39.60;;;;;;5972667;24;20472;-74
2022/04/20 11:38:49;;;;;;;2.87;2.67;;;22.60;39.30;;;;;;5952934;23;20449;-74
2022/04/20 11:41:19;;;;;;;2.53;2.37;;;23.00;39.40;;;;;;5969944;23;20556;-74
2022/04/20 11:43:47;;;;;;;3.13;2.93;;;23.10;39.10;;;;;;5971534;23;20465;-74
2022/04/20 11:46:14;;;;;;;3.13;2.93;;;23.40;38.70;;;;;;5964424;23;20442;-73
2022/04/20 11:48:53;;;;;;;3.30;3.07;;;23.50;39.00;;;;;;5974768;24;20454;-73
2022/04/20 11:51:23;;;;;;;2.97;2.77;;;23.30;38.90;;;;;;5971609;24;20442;-73
2022/04/20 11:53:50;;;;;;;2.90;2.70;;;23.50;39.10;;;;;;5974920;24;20469;-73
2022/04/20 11:56:18;;;;;;;3.40;3.20;;;23.00;38.80;;;;;;5970617;23;20442;-73
2022/04/20 11:58:50;;;;;;;2.67;2.57;;;22.60;38.50;;;;;;5972483;23;20456;-73
2022/04/20 12:01:17;;;;;;;3.40;3.10;;;22.60;39.50;;;;;;5971318;24;20552;-72
2022/04/20 12:03:49;;;;;;;4.10;3.13;;;22.90;39.90;;;;;;5971163;23;20477;-73
2022/04/20 12:06:17;;;;;;;3.50;3.20;;;22.90;39.50;;;;;;5973744;24;20438;-74
2022/04/20 12:08:47;;;;;;;3.87;3.57;;;22.20;39.50;;;;;;5975099;24;20516;-73
2022/04/20 12:11:15;;;;;;;3.73;3.43;;;21.70;39.50;;;;;;5952698;24;20443;-73
2022/04/20 12:13:43;;;;;;;3.40;3.17;;;21.60;40.30;;;;;;5967138;23;20458;-74
2022/04/20 12:16:11;;;;;;;3.57;3.27;;;22.00;40.20;;;;;;5971993;24;20543;-73
2022/04/20 12:18:41;;;;;;;3.50;3.30;;;21.90;40.40;;;;;;5969980;24;20539;-74
2022/04/20 12:21:44;;;;;;;3.23;3.03;;;21.90;40.80;;;;;;5972859;24;20563;-73
2022/04/20 12:24:18;;;;;;;3.43;3.23;;;21.80;40.70;;;;;;5969635;23;20454;-72
2022/04/20 12:26:47;;;;;;;4.80;3.30;;;21.60;41.40;;;;;;5973233;23;20777;-73
2022/04/20 12:29:18;;;;;;;4.03;3.60;;;22.00;40.90;;;;;;5975404;24;20440;-72
2022/04/20 12:31:49;;;;;;;3.23;3.03;;;21.30;40.30;;;;;;5965034;23;20465;-73
2022/04/20 12:34:16;;;;;;;3.33;3.07;;;21.10;41.30;;;;;;5969508;23;20853;-73
2022/04/20 12:37:03;;;;;;;2.87;2.63;;;21.20;41.40;;;;;;5965494;23;20448;-73
2022/04/20 12:39:32;;;;;;;3.47;3.20;;;21.00;41.90;;;;;;5963593;23;20478;-72
2022/04/20 12:42:02;;;;;;;3.43;3.23;;;20.80;42.00;;;;;;5966076;23;20477;-74
2022/04/20 12:44:54;;;;;;;2.80;2.60;;;21.00;42.30;;;;;;5970751;23;20469;-75
2022/04/20 12:47:37;;;;;;;2.90;2.60;;;21.10;41.40;;;;;;5968401;23;20475;-74
2022/04/20 12:50:18;;;;;;;3.10;2.90;;;21.50;40.90;;;;;;5970986;24;20831;-74
2022/04/20 12:52:53;;;;;;;4.10;2.67;;;20.80;40.80;;;;;;5966861;23;20526;-74
2022/04/20 12:55:20;;;;;;;3.50;3.20;;;21.00;41.80;;;;;;5972670;23;20474;-74
2022/04/20 13:03:35;;;;;;;2.63;2.50;;;21.00;41.60;;;;;;5958044;24;20558;-74
2022/04/20 13:06:02;;;;;;;3.43;3.13;;;21.20;41.00;;;;;;5969266;23;20520;-75
2022/04/20 13:08:29;;;;;;;2.70;2.50;;;21.70;40.90;;;;;;5973063;24;20456;-74
2022/04/20 13:10:58;;;;;;;2.50;2.30;;;21.70;39.80;;;;;;5974860;23;20456;-74
2022/04/20 13:13:26;;;;;;;2.77;2.60;;;21.40;40.80;;;;;;5975466;24;20485;-74
2022/04/20 13:15:56;;;;;;;2.67;2.47;;;21.30;40.40;;;;;;5975764;24;20447;-74
2022/04/20 13:18:23;;;;;;;2.70;2.50;;;20.90;40.40;;;;;;5971280;23;20439;-74
2022/04/20 13:20:51;;;;;;;2.97;2.77;;;20.90;40.20;;;;;;5974087;23;20533;-73
2022/04/20 13:23:18;;;;;;;2.50;2.30;;;20.90;40.20;;;;;;5974316;24;20474;-75
2022/04/20 13:28:29;;;;;;;2.77;2.57;;;21.30;39.80;;;;;;5953345;23;20445;-74
2022/04/20 13:30:57;;;;;;;2.50;2.30;;;22.00;40.10;;;;;;5967228;24;20442;-74
2022/04/20 13:33:24;;;;;;;3.80;2.80;;;22.60;39.00;;;;;;5964492;23;20461;-73
2022/04/20 13:35:53;;;;;;;3.23;2.90;;;22.40;37.90;;;;;;5972781;23;20500;-73
2022/04/20 13:38:22;;;;;;;2.63;2.43;;;22.00;38.00;;;;;;5966278;24;20449;-73
2022/04/20 13:40:49;;;;;;;4.23;2.47;;;22.10;38.30;;;;;;5969512;24;20484;-74